Time;durP1;ratioP1;P1;durP2;ratioP2;P2;SDS_P1;SDS_P2;PMS_P1;PMS_P2;Temp;Humidity;BMP_temperature;BMP_pressure;BME280_temperature;BME280_humidity;BME280_pressure;Samples;Min_cycle;Max_cycle;Signal;HPM_P1;HPM_P2
2022/03/20 00:00:34;;;;;;;113.77;49.67;;;;;;;-3.27;62.93;100486.44;1751477;80;21442;-55
2022/03/20 00:03:09;;;;;;;101.65;41.85;;;;;;;-3.32;66.16;100488.66;1748262;80;20991;-56
2022/03/20 00:05:39;;;;;;;83.85;39.38;;;;;;;-3.37;65.99;100484.22;1746710;81;21013;-56
2022/03/20 00:08:09;;;;;;;85.05;37.50;;;;;;;-3.41;65.14;100483.65;1742749;82;20994;-58
2022/03/20 00:10:38;;;;;;;78.42;36.28;;;;;;;-3.43;62.50;100479.78;1743223;82;21369;-56
2022/03/20 00:13:08;;;;;;;74.25;37.78;;;;;;;-3.44;63.24;100486.05;1743297;80;21325;-56
2022/03/20 00:15:40;;;;;;;83.12;36.15;;;;;;;-3.47;63.38;100481.52;1747070;81;21040;-56
2022/03/20 00:18:06;;;;;;;85.17;38.35;;;;;;;-3.46;61.71;100483.19;1743037;80;21074;-56
2022/03/20 00:20:41;;;;;;;83.33;39.18;;;;;;;-3.49;61.07;100482.97;1742247;81;21454;-56
2022/03/20 00:23:10;;;;;;;87.08;38.38;;;;;;;-3.54;64.99;100486.97;1761783;79;21036;-56
2022/03/20 00:25:44;;;;;;;89.37;39.30;;;;;;;-3.55;60.67;100479.50;1768930;80;21922;-56
2022/03/20 00:28:12;;;;;;;93.33;40.85;;;;;;;-3.57;61.36;100474.83;1755203;79;20981;-56
2022/03/20 00:30:39;;;;;;;89.55;36.93;;;;;;;-3.57;66.11;100472.17;1746573;80;21028;-56
2022/03/20 00:33:06;;;;;;;77.85;36.20;;;;;;;-3.61;66.54;100476.52;1743953;80;20997;-56
2022/03/20 00:35:33;;;;;;;78.90;35.55;;;;;;;-3.63;65.17;100473.17;1744789;80;21069;-56
2022/03/20 00:38:00;;;;;;;94.13;38.17;;;;;;;-3.62;63.30;100478.82;1711429;82;21045;-56
2022/03/20 00:40:27;;;;;;;121.55;51.83;;;;;;;-3.59;61.29;100478.55;1745596;80;21612;-55
2022/03/20 00:42:54;;;;;;;111.80;51.20;;;;;;;-3.59;61.88;100478.09;1751413;80;22102;-56
2022/03/20 00:45:21;;;;;;;106.60;45.70;;;;;;;-3.58;64.22;100481.09;1744789;80;21045;-56
2022/03/20 00:47:48;;;;;;;89.42;39.27;;;;;;;-3.59;64.51;100491.80;1751592;80;21107;-56
2022/03/20 00:50:15;;;;;;;86.08;42.33;;;;;;;-3.63;65.41;100481.13;1765161;80;21420;-56
2022/03/20 00:52:42;;;;;;;87.30;38.92;;;;;;;-3.67;66.67;100481.88;1745213;80;20930;-56
2022/03/20 00:55:09;;;;;;;72.80;34.38;;;;;;;-3.70;67.54;100483.44;1737005;80;21252;-56
2022/03/20 00:57:36;;;;;;;88.50;33.50;;;;;;;-3.73;65.27;100479.73;1763338;79;20985;-56
2022/03/20 01:00:05;;;;;;;93.20;36.68;;;;;;;-3.79;66.93;100480.23;1773357;80;20991;-56
2022/03/20 01:02:39;;;;;;;76.97;33.33;;;;;;;-3.87;68.56;100483.52;1758996;80;21690;-55
2022/03/20 01:05:08;;;;;;;69.37;31.97;;;;;;;-3.91;67.11;100483.91;1759018;80;20978;-56
2022/03/20 01:07:36;;;;;;;78.60;34.25;;;;;;;-4.01;67.03;100478.05;1745941;80;21971;-56
2022/03/20 01:10:05;;;;;;;81.08;34.90;;;;;;;-4.15;70.10;100484.13;1743303;80;20985;-57
2022/03/20 01:12:33;;;;;;;74.32;36.10;;;;;;;-4.15;69.08;100489.42;1747289;80;21470;-56
2022/03/20 01:15:01;;;;;;;78.30;33.98;;;;;;;-4.18;66.50;100494.48;1742743;82;21015;-56
2022/03/20 01:17:28;;;;;;;67.27;29.30;;;;;;;-4.26;69.49;100489.81;1764978;80;21052;-56
2022/03/20 01:19:55;;;;;;;72.32;34.18;;;;;;;-4.28;69.73;100485.10;1773430;80;21233;-56
2022/03/20 01:22:22;;;;;;;70.32;33.33;;;;;;;-4.29;69.81;100484.75;1748536;80;21501;-58
2022/03/20 01:24:49;;;;;;;78.70;33.40;;;;;;;-4.30;67.76;100484.39;1742755;81;20981;-58
2022/03/20 01:27:16;;;;;;;80.38;36.03;;;;;;;-4.35;69.07;100487.08;1742855;82;22101;-58
2022/03/20 01:29:43;;;;;;;76.28;33.08;;;;;;;-4.39;70.61;100489.11;1742437;81;21528;-58
2022/03/20 01:32:10;;;;;;;77.05;34.13;;;;;;;-4.45;70.73;100484.30;1742132;82;21137;-56
2022/03/20 01:34:40;;;;;;;75.78;35.40;;;;;;;-4.42;69.70;100487.21;1742875;82;21034;-56
2022/03/20 01:37:08;;;;;;;72.30;36.00;;;;;;;-4.42;67.80;100488.53;1742789;81;21433;-56
2022/03/20 01:39:35;;;;;;;71.85;35.23;;;;;;;-4.41;67.43;100487.08;1741625;82;22125;-56
2022/03/20 01:42:05;;;;;;;71.00;33.58;;;;;;;-4.44;69.43;100475.42;1742822;81;21450;-56
2022/03/20 01:44:34;;;;;;;62.27;31.37;;;;;;;-4.50;70.55;100477.23;1742918;82;21045;-56
2022/03/20 01:47:03;;;;;;;73.67;34.10;;;;;;;-4.57;70.86;100472.91;1743265;82;21010;-56
2022/03/20 01:49:30;;;;;;;62.10;30.08;;;;;;;-4.68;72.02;100470.30;1752528;80;21068;-56
2022/03/20 01:52:23;;;;;;;68.15;30.10;;;;;;;-4.69;70.91;100471.75;1755989;80;21279;-56
2022/03/20 01:54:45;;;;;;;75.25;32.23;;;;;;;-4.68;69.19;100466.81;1751617;80;21060;-56
2022/03/20 01:57:16;;;;;;;68.07;33.53;;;;;;;-4.74;71.44;100461.52;1743241;81;21113;-57
2022/03/20 01:59:44;;;;;;;69.12;33.42;;;;;;;-4.82;72.68;100461.28;1742916;82;20997;-56
2022/03/20 02:02:11;;;;;;;72.08;33.88;;;;;;;-4.86;73.13;100450.60;1742983;82;21101;-56
2022/03/20 02:04:38;;;;;;;83.07;36.85;;;;;;;-4.85;70.39;100458.41;1742689;82;22993;-56
2022/03/20 02:07:06;;;;;;;67.37;31.85;;;;;;;-4.75;68.79;100455.03;1743083;82;21387;-56
2022/03/20 02:09:37;;;;;;;60.83;29.80;;;;;;;-4.70;66.02;100453.71;1742997;82;21962;-56
2022/03/20 02:12:05;;;;;;;61.90;29.27;;;;;;;-4.73;65.50;100455.26;1757549;80;21005;-56
2022/03/20 02:14:35;;;;;;;50.55;24.63;;;;;;;-4.70;65.68;100454.16;1743029;82;21398;-56
2022/03/20 02:17:02;;;;;;;73.70;32.70;;;;;;;-4.64;66.10;100453.19;1748995;80;21012;-54
2022/03/20 02:19:29;;;;;;;67.45;30.55;;;;;;;-4.60;66.29;100459.09;1773611;80;21006;-57
2022/03/20 02:21:56;;;;;;;67.55;30.32;;;;;;;-4.62;68.00;100452.58;1748422;80;21054;-56
2022/03/20 02:24:49;;;;;;;66.37;32.23;;;;;;;-4.64;70.05;100455.84;1743034;82;21383;-56
2022/03/20 02:27:17;;;;;;;69.55;31.62;;;;;;;-4.84;71.85;100453.96;1747128;80;21073;-56
2022/03/20 02:29:47;;;;;;;68.95;30.82;;;;;;;-4.91;72.25;100448.79;1742895;82;22207;-56
2022/03/20 02:32:19;;;;;;;64.55;31.25;;;;;;;-4.94;69.78;100456.50;1742899;82;21057;-56
2022/03/20 02:34:50;;;;;;;74.03;32.58;;;;;;;-4.98;69.29;100451.55;1742966;82;21061;-56
2022/03/20 02:37:17;;;;;;;62.75;30.77;;;;;;;-5.00;69.70;100451.69;1742018;81;21006;-56
2022/03/20 02:39:44;;;;;;;64.32;32.10;;;;;;;-5.01;71.70;100447.84;1742929;82;21041;-56
2022/03/20 02:42:13;;;;;;;75.35;34.08;;;;;;;-5.09;73.13;100449.77;1743128;81;21105;-55
2022/03/20 02:45:00;;;;;;;70.37;35.00;;;;;;;-5.14;73.55;100450.59;1743041;82;27979;-56
2022/03/20 02:47:29;;;;;;;68.83;28.98;;;;;;;-5.20;73.98;100446.65;1741465;81;21096;-55
2022/03/20 02:50:07;;;;;;;;;;;;;;;-5.18;73.05;100442.08;1750670;80;21446;-55
2022/03/20 02:53:01;;;;;;;65.12;26.42;;;;;;;-5.20;70.23;100444.00;1742113;81;20453;-57
2022/03/20 02:55:35;;;;;;;61.40;26.42;;;;;;;-5.31;72.20;100453.72;1766513;80;21411;-57
2022/03/20 02:58:06;;;;;;;61.10;29.75;;;;;;;-5.40;72.07;100462.72;1761778;80;21009;-56
2022/03/20 03:00:33;;;;;;;59.50;29.07;;;;;;;-5.47;73.49;100458.89;1766524;80;20998;-56
2022/03/20 03:03:01;;;;;;;61.88;29.42;;;;;;;-5.45;72.63;100456.96;1769477;80;21001;-56
2022/03/20 03:05:30;;;;;;;65.77;28.27;;;;;;;-5.53;75.33;100459.83;1767082;80;21002;-56
2022/03/20 03:10:57;;;;;;;61.15;25.77;;;;;;;-5.50;71.90;100458.27;1769648;80;21041;-56
2022/03/20 03:13:34;;;;;;;60.15;27.48;;;;;;;-5.56;74.80;100449.48;1742766;81;21018;-56
2022/03/20 03:16:06;;;;;;;64.47;27.62;;;;;;;-5.61;75.19;100463.54;1743190;82;21013;-56
2022/03/20 03:18:34;;;;;;;66.25;31.80;;;;;;;-5.60;73.28;100460.77;1742919;82;20998;-56
2022/03/20 03:21:01;;;;;;;60.35;24.98;;;;;;;-5.61;75.84;100455.61;1743115;82;21302;-56
2022/03/20 03:23:28;;;;;;;60.10;25.85;;;;;;;-5.61;72.74;100456.45;1742662;81;20994;-56
2022/03/20 03:25:55;;;;;;;49.83;25.92;;;;;;;-5.63;71.97;100464.98;1743041;82;21045;-56
2022/03/20 03:28:23;;;;;;;53.65;27.85;;;;;;;-5.67;73.25;100452.47;1742818;81;21509;-56
2022/03/20 03:30:50;;;;;;;60.03;28.85;;;;;;;-5.65;74.61;100462.91;1754705;80;20993;-55
2022/03/20 03:33:19;;;;;;;65.50;29.87;;;;;;;-5.63;74.17;100464.14;1773491;80;22110;-56
2022/03/20 03:35:53;;;;;;;56.28;26.25;;;;;;;-5.65;75.79;100456.30;1769159;80;21455;-56
2022/03/20 03:38:26;;;;;;;53.68;24.72;;;;;;;-5.67;74.67;100455.11;1742870;81;22042;-56
2022/03/20 03:40:55;;;;;;;53.68;23.50;;;;;;;-5.68;73.13;100464.47;1743090;82;21022;-56
2022/03/20 03:43:22;;;;;;;54.58;25.25;;;;;;;-5.75;73.56;100465.41;1743065;81;22146;-56
2022/03/20 03:45:49;;;;;;;54.55;24.92;;;;;;;-5.77;74.29;100463.38;1742991;82;21871;-55
2022/03/20 03:48:16;;;;;;;52.10;24.70;;;;;;;-5.75;75.14;100465.41;1761352;81;21410;-56
2022/03/20 03:50:45;;;;;;;50.40;24.67;;;;;;;-5.73;74.60;100460.01;1768055;80;21004;-56
2022/03/20 03:53:11;;;;;;;48.17;22.27;;;;;;;-5.79;75.94;100465.30;1743129;81;21459;-56
2022/03/20 03:55:41;;;;;;;58.87;27.45;;;;;;;-5.78;72.91;100471.42;1748754;80;21053;-56
2022/03/20 03:58:08;;;;;;;58.85;25.77;;;;;;;-5.84;74.84;100472.71;1767311;80;21620;-55
2022/03/20 04:00:35;;;;;;;64.82;29.20;;;;;;;-5.80;75.00;100475.98;1767018;80;21407;-55
2022/03/20 04:03:02;;;;;;;56.42;27.32;;;;;;;-5.75;75.17;100481.74;1769243;80;21013;-56
2022/03/20 04:05:29;;;;;;;56.80;24.12;;;;;;;-5.74;75.47;100483.42;1766259;80;21013;-55
2022/03/20 04:07:56;;;;;;;54.30;25.17;;;;;;;-5.74;73.96;100493.50;1759358;80;21068;-56
2022/03/20 04:10:24;;;;;;;46.92;24.72;;;;;;;-5.75;74.74;100489.66;1767833;80;21405;-55
2022/03/20 04:12:51;;;;;;;55.63;25.37;;;;;;;-5.72;75.10;100485.49;1742776;82;21022;-55
2022/03/20 04:15:23;;;;;;;53.08;24.75;;;;;;;-5.67;73.73;100484.17;1742787;82;21662;-55
2022/03/20 04:17:47;;;;;;;54.38;25.10;;;;;;;-5.66;75.40;100488.97;1742438;81;21018;-56
2022/03/20 04:20:13;;;;;;;53.78;23.80;;;;;;;-5.71;75.09;100491.98;1742966;82;21072;-55
2022/03/20 04:23:42;;;;;;;52.08;25.62;;;;;;;-5.75;74.51;100494.95;1752972;80;21282;-56
2022/03/20 04:25:13;;;;;;;45.33;24.12;;;;;;;-5.90;75.95;100486.36;1739446;82;21009;-56
2022/03/20 04:27:40;;;;;;;51.90;24.50;;;;;;;-5.91;75.14;100487.84;1743078;81;21459;-55
2022/03/20 04:30:09;;;;;;;58.98;24.65;;;;;;;-6.00;76.79;100492.84;1743008;82;21034;-56
2022/03/20 04:32:36;;;;;;;49.53;24.02;;;;;;;-5.96;74.08;100492.16;1743056;81;22027;-55
2022/03/20 04:35:05;;;;;;;55.73;25.65;;;;;;;-6.02;75.07;100494.77;1743092;82;21983;-55
2022/03/20 04:37:31;;;;;;;48.13;23.98;;;;;;;-6.01;76.10;100494.28;1743209;82;21462;-56
2022/03/20 04:39:58;;;;;;;60.50;28.07;;;;;;;-5.99;74.34;100495.84;1742978;82;21014;-55
2022/03/20 04:42:25;;;;;;;54.98;28.38;;;;;;;-5.89;74.06;100500.44;1743133;81;20950;-55
2022/03/20 04:44:52;;;;;;;51.80;26.42;;;;;;;-5.87;76.55;100505.96;1743069;82;20993;-55
2022/03/20 04:58:30;;;;;;;50.08;25.75;;;;;;;-5.80;75.31;100512.95;1766355;80;20985;-56
2022/03/20 05:00:58;;;;;;;54.13;25.20;;;;;;;-5.82;75.42;100518.33;1766767;80;21419;-56
2022/03/20 05:03:25;;;;;;;51.65;26.65;;;;;;;-5.80;75.43;100517.76;1743331;81;20978;-56
2022/03/20 05:05:52;;;;;;;49.50;24.95;;;;;;;-5.82;75.78;100531.53;1742758;82;21419;-56
2022/03/20 05:08:19;;;;;;;55.50;26.33;;;;;;;-5.82;75.18;100520.97;1743278;82;21523;-55
2022/03/20 05:13:32;;;;;;;50.52;28.83;;;;;;;-5.79;74.19;100531.33;1743002;81;21498;-56
2022/03/20 05:15:58;;;;;;;58.95;28.00;;;;;;;-5.75;74.90;100520.88;1742840;82;21065;-56
2022/03/20 05:18:25;;;;;;;44.00;22.07;;;;;;;-5.70;75.64;100515.27;1743045;81;20971;-56
2022/03/20 05:20:52;;;;;;;53.35;21.80;;;;;;;-5.68;74.21;100519.95;1742973;82;21059;-56
2022/03/20 05:23:23;;;;;;;49.65;23.52;;;;;;;-5.65;72.60;100517.55;1743024;81;21001;-56
2022/03/20 05:25:50;;;;;;;52.53;25.92;;;;;;;-5.65;76.03;100514.91;1742899;82;22128;-56
2022/03/20 05:28:17;;;;;;;59.98;26.73;;;;;;;-5.59;76.43;100518.41;1742962;81;21005;-56
2022/03/20 05:30:44;;;;;;;56.98;31.60;;;;;;;-5.58;76.83;100522.26;1742886;82;21080;-56
2022/03/20 05:33:12;;;;;;;75.85;39.95;;;;;;;-5.56;76.34;100524.30;1743061;81;21042;-55
2022/03/20 05:35:39;;;;;;;70.47;36.90;;;;;;;-5.51;75.82;100526.61;1742891;82;21053;-56
2022/03/20 05:38:08;;;;;;;51.10;27.58;;;;;;;-5.49;75.55;100528.65;1747108;80;21431;-55
2022/03/20 05:40:37;;;;;;;;;;;;;;;-5.41;75.36;100540.32;1745580;81;21062;-56
2022/03/20 05:43:08;;;;;;;52.78;24.12;;;;;;;-5.33;73.66;100537.58;1762664;80;20184;-56
2022/03/20 05:45:37;;;;;;;59.40;30.65;;;;;;;-5.30;72.83;100536.85;1767417;80;21526;-55
2022/03/20 05:48:05;;;;;;;65.10;33.45;;;;;;;-5.23;74.75;100543.84;1750053;80;21473;-56
2022/03/20 05:50:32;;;;;;;54.43;24.97;;;;;;;-5.18;75.04;100539.06;1761358;80;21073;-55
2022/03/20 05:52:59;;;;;;;62.33;34.18;;;;;;;-5.07;75.15;100546.16;1747492;80;21049;-56
2022/03/20 05:58:13;;;;;;;62.20;31.68;;;;;;;-4.91;75.65;100540.04;1743047;81;21469;-55
2022/03/20 06:00:41;;;;;;;62.33;30.08;;;;;;;-4.76;74.92;100537.53;1742979;82;20967;-56
2022/03/20 06:03:10;;;;;;;54.23;27.80;;;;;;;-4.62;73.92;100539.06;1743145;81;21365;-56
2022/03/20 06:05:38;;;;;;;63.15;33.83;;;;;;;-4.51;75.55;100540.41;1742966;82;20986;-56
2022/03/20 06:08:05;;;;;;;51.23;24.85;;;;;;;-4.35;75.08;100542.67;1743444;81;21002;-56
2022/03/20 06:10:33;;;;;;;62.88;32.88;;;;;;;-4.15;74.06;100545.03;1743374;82;21431;-56
2022/03/20 06:13:03;;;;;;;72.12;35.17;;;;;;;-4.01;74.25;100554.03;1747211;80;21057;-56
2022/03/20 06:15:30;;;;;;;62.67;34.20;;;;;;;-3.75;74.00;100551.90;1743158;81;21415;-56
2022/03/20 06:17:57;;;;;;;68.75;36.15;;;;;;;-3.49;73.74;100560.34;1742924;81;21062;-56
2022/03/20 06:20:25;;;;;;;67.82;36.53;;;;;;;-3.33;72.72;100559.87;1748887;80;21481;-55
2022/03/20 06:22:52;;;;;;;61.60;32.80;;;;;;;-3.20;72.33;100556.06;1752945;80;21447;-56
2022/03/20 06:25:20;;;;;;;59.55;34.83;;;;;;;-3.10;71.99;100554.80;1743175;81;21446;-56
2022/03/20 06:27:56;;;;;;;70.10;38.58;;;;;;;-2.97;71.76;100555.94;1769100;80;21448;-56
2022/03/20 06:30:22;;;;;;;117.28;83.07;;;;;;;-2.81;71.29;100557.62;1768527;80;20993;-55
2022/03/20 06:32:49;;;;;;;86.15;48.10;;;;;;;-2.64;70.98;100562.80;1759436;80;20972;-56
2022/03/20 06:35:19;;;;;;;67.75;38.67;;;;;;;-2.47;70.62;100562.66;1769623;80;21441;-56
2022/03/20 06:37:53;;;;;;;67.08;38.05;;;;;;;-2.31;70.54;100566.95;1742957;81;21053;-56
2022/03/20 06:40:21;;;;;;;69.12;37.70;;;;;;;-2.16;70.14;100566.93;1743144;82;21346;-56
2022/03/20 06:42:48;;;;;;;68.75;36.98;;;;;;;-2.01;69.75;100573.55;1743101;81;21065;-56
2022/03/20 06:45:15;;;;;;;61.33;32.88;;;;;;;-1.85;68.93;100573.02;1747089;80;21009;-56
2022/03/20 06:47:43;;;;;;;60.28;31.75;;;;;;;-1.63;68.78;100567.91;1759908;80;20986;-56
2022/03/20 06:50:11;;;;;;;58.17;28.52;;;;;;;-1.36;68.43;100575.22;1759274;80;21004;-56
2022/03/20 06:52:41;;;;;;;53.73;24.57;;;;;;;-1.18;67.06;100572.19;1743286;81;20975;-56
2022/03/20 06:55:16;;;;;;;48.28;26.42;;;;;;;-1.07;66.28;100575.17;1769160;80;21002;-56
2022/03/20 06:57:44;;;;;;;68.00;31.02;;;;;;;-0.93;65.27;100574.73;1744274;80;21056;-56
2022/03/20 07:00:12;;;;;;;63.35;29.52;;;;;;;-0.71;65.59;100577.53;1743204;82;20975;-56
2022/03/20 07:02:39;;;;;;;47.98;22.87;;;;;;;-0.51;65.30;100576.12;1752923;80;21502;-56
2022/03/20 07:05:08;;;;;;;47.03;24.35;;;;;;;-0.26;64.50;100584.77;1743196;82;21463;-56
2022/03/20 07:07:35;;;;;;;;;;;;;;;-0.01;63.30;100584.08;1745668;81;21009;-56
2022/03/20 07:10:03;;;;;;;44.20;24.40;;;;;;;0.34;62.01;100577.11;1743303;80;20171;-56
2022/03/20 07:12:31;;;;;;;45.35;22.70;;;;;;;1.10;61.21;100582.77;1743230;81;21438;-57
2022/03/20 07:14:58;;;;;;;37.98;21.73;;;;;;;2.02;60.34;100585.25;1743250;82;21017;-57
2022/03/20 07:17:24;;;;;;;41.77;21.48;;;;;;;2.81;59.90;100585.22;1743261;82;20986;-57
2022/03/20 07:19:52;;;;;;;51.95;31.57;;;;;;;3.71;57.11;100581.06;1743359;82;21005;-57
2022/03/20 07:22:19;;;;;;;40.20;25.88;;;;;;;4.13;57.31;100578.86;1743070;81;21002;-56
2022/03/20 07:24:46;;;;;;;38.85;24.75;;;;;;;5.14;55.62;100579.66;1743095;82;20994;-56
2022/03/20 07:29:59;;;;;;;35.38;23.50;;;;;;;5.95;51.90;100586.85;1743080;82;21363;-57
2022/03/20 07:32:26;;;;;;;35.90;22.22;;;;;;;6.59;51.20;100592.38;1742859;81;20993;-57
2022/03/20 07:34:53;;;;;;;32.17;22.70;;;;;;;6.97;45.72;100586.72;1743019;82;21653;-57
2022/03/20 07:37:21;;;;;;;31.57;21.90;;;;;;;7.92;48.01;100580.73;1742983;81;21455;-57
2022/03/20 07:39:50;;;;;;;36.53;23.62;;;;;;;8.74;44.97;100586.03;1743386;82;21424;-56
2022/03/20 07:42:18;;;;;;;35.48;22.67;;;;;;;8.50;40.78;100579.84;1743098;81;21394;-57
2022/03/20 07:44:45;;;;;;;33.42;21.97;;;;;;;9.37;44.53;100578.04;1743132;82;21002;-57
2022/03/20 07:47:20;;;;;;;35.98;24.85;;;;;;;9.85;42.75;100580.77;1750120;81;21105;-57
2022/03/20 07:49:49;;;;;;;35.78;26.35;;;;;;;10.35;42.50;100589.16;1760185;81;37927;-57
2022/03/20 07:52:16;;;;;;;36.70;23.77;;;;;;;10.94;40.47;100583.06;1743261;81;22007;-57
2022/03/20 07:54:45;;;;;;;37.30;23.87;;;;;;;10.79;40.74;100590.16;1743281;82;21391;-57
2022/03/20 07:57:13;;;;;;;32.03;22.10;;;;;;;10.84;40.00;100581.34;1753402;80;21077;-57
2022/03/20 07:59:41;;;;;;;31.93;21.77;;;;;;;11.22;37.94;100588.89;1743473;82;21005;-58
2022/03/20 08:02:08;;;;;;;31.10;19.93;;;;;;;11.70;37.34;100582.78;1753173;80;21357;-57
2022/03/20 08:04:35;;;;;;;30.57;21.62;;;;;;;12.49;36.53;100585.13;1743399;81;22049;-57
2022/03/20 08:07:02;;;;;;;26.27;19.87;;;;;;;12.73;34.21;100582.47;1752797;80;21249;-57
2022/03/20 08:09:29;;;;;;;26.68;17.82;;;;;;;12.93;32.94;100586.58;1743666;81;20974;-57
2022/03/20 08:11:56;;;;;;;26.87;18.37;;;;;;;14.07;30.72;100582.17;1746813;80;21426;-57
2022/03/20 08:14:23;;;;;;;27.30;18.37;;;;;;;13.47;31.11;100585.19;1743221;82;21033;-58
2022/03/20 08:16:51;;;;;;;36.03;24.90;;;;;;;13.95;31.46;100581.38;1746675;80;21017;-57
2022/03/20 08:19:21;;;;;;;41.33;29.15;;;;;;;14.38;30.67;100573.55;1743132;82;21097;-57
2022/03/20 08:21:49;;;;;;;26.23;20.08;;;;;;;14.80;28.26;100582.00;1748305;80;20966;-58
2022/03/20 08:24:16;;;;;;;;;;;;;;;14.73;29.09;100583.52;1746301;82;21003;-57
2022/03/20 08:26:43;;;;;;;21.15;14.90;;;;;;;15.48;25.82;100578.23;1742981;82;20450;-57
2022/03/20 08:29:10;;;;;;;19.37;14.28;;;;;;;16.51;28.35;100577.16;1742874;82;21006;-57
2022/03/20 08:31:37;;;;;;;20.37;15.55;;;;;;;16.77;27.46;100574.99;1742914;82;21337;-58
2022/03/20 08:34:05;;;;;;;22.30;16.25;;;;;;;16.78;26.44;100573.08;1742922;81;20963;-57
2022/03/20 08:36:34;;;;;;;;;;;;;;;15.78;21.97;100570.48;1745523;82;21526;-58
2022/03/20 08:39:01;;;;;;;29.77;16.80;;;;;;;16.84;26.83;100568.77;1743264;81;20158;-58
2022/03/20 08:41:28;;;;;;;55.38;39.40;;;;;;;16.38;22.55;100563.85;1746039;80;21470;-58
2022/03/20 08:43:55;;;;;;;50.08;37.93;;;;;;;16.23;21.30;100568.59;1743201;80;21419;-58
2022/03/20 08:46:23;;;;;;;31.85;21.65;;;;;;;17.40;24.25;100567.86;1749094;80;21045;-58
2022/03/20 08:48:50;;;;;;;22.50;15.98;;;;;;;18.26;22.25;100563.41;1742983;82;21025;-58
2022/03/20 08:51:17;;;;;;;19.67;15.23;;;;;;;17.88;22.34;100562.44;1743023;82;20993;-58
2022/03/20 08:53:44;;;;;;;20.75;15.48;;;;;;;18.13;23.15;100557.07;1751137;80;20989;-58
2022/03/20 08:56:11;;;;;;;23.80;15.08;;;;;;;18.86;22.73;100553.70;1758124;80;21279;-57
2022/03/20 08:58:38;;;;;;;22.52;14.87;;;;;;;19.93;20.68;100552.25;1746747;80;21049;-58
2022/03/20 09:01:06;;;;;;;27.73;17.32;;;;;;;19.13;21.48;100553.44;1743213;81;21295;-58
2022/03/20 09:03:33;;;;;;;20.52;15.95;;;;;;;19.06;20.99;100554.84;1746834;80;21071;-58
2022/03/20 09:06:00;;;;;;;21.27;14.68;;;;;;;19.90;20.23;100549.22;1743292;81;21001;-57
2022/03/20 09:08:27;;;;;;;21.35;15.58;;;;;;;18.71;20.86;100545.98;1767531;80;21990;-57
2022/03/20 09:10:54;;;;;;;27.48;18.32;;;;;;;16.78;21.10;100546.52;1761607;80;20998;-57
2022/03/20 09:13:21;;;;;;;23.25;15.83;;;;;;;14.78;21.52;100548.64;1743028;81;21443;-57
2022/03/20 09:18:59;;;;;;;29.98;18.55;;;;;;;13.95;23.51;100545.94;1742835;82;21046;-57
2022/03/20 09:21:03;;;;;;;23.60;16.12;;;;;;;11.57;24.74;100544.38;1756612;80;22194;-57
2022/03/20 09:23:30;;;;;;;24.97;15.53;;;;;;;10.61;25.67;100545.32;1744973;80;22065;-57
2022/03/20 09:25:56;;;;;;;25.02;15.93;;;;;;;10.43;26.43;100539.28;1741707;82;21470;-57
2022/03/20 09:28:23;;;;;;;23.55;14.75;;;;;;;10.20;26.90;100547.91;1766266;80;20997;-57
2022/03/20 09:30:50;;;;;;;24.07;16.00;;;;;;;9.95;27.68;100549.69;1762656;80;21128;-57
2022/03/20 09:33:17;;;;;;;27.00;18.23;;;;;;;9.54;27.82;100541.38;1743037;82;21391;-57
2022/03/20 09:35:44;;;;;;;27.13;16.75;;;;;;;9.36;28.05;100542.03;1742757;82;21438;-57
2022/03/20 09:38:12;;;;;;;26.80;17.52;;;;;;;9.21;28.53;100542.25;1742821;82;22008;-57
2022/03/20 09:40:39;;;;;;;30.65;18.30;;;;;;;9.21;28.53;100542.25;1743094;82;21022;-57
2022/03/20 09:43:06;;;;;;;29.45;17.70;;;;;;;8.86;29.55;100538.94;1763025;80;21017;-57
2022/03/20 09:45:33;;;;;;;32.50;18.00;;;;;;;8.89;29.23;100539.89;1766428;80;21305;-57
2022/03/20 09:48:00;;;;;;;35.35;19.50;;;;;;;8.66;29.49;100535.39;1744078;80;20906;-57
2022/03/20 09:50:27;;;;;;;35.40;20.95;;;;;;;8.66;29.52;100533.52;1749279;80;21393;-57
2022/03/20 09:52:54;;;;;;;90.30;52.20;;;;;;;8.57;29.89;100532.05;1741747;80;21047;-57
2022/03/20 09:55:21;;;;;;;57.67;30.10;;;;;;;8.67;29.81;100535.18;1743527;82;20970;-57
2022/03/20 09:57:48;;;;;;;35.48;21.35;;;;;;;8.75;29.89;100528.75;1743175;81;21313;-57
2022/03/20 10:00:16;;;;;;;34.40;20.00;;;;;;;8.77;29.65;100533.42;1743461;82;20962;-57
2022/03/20 10:02:43;;;;;;;29.52;18.92;;;;;;;8.71;30.18;100527.48;1743158;81;20994;-56
2022/03/20 10:05:10;;;;;;;29.77;18.20;;;;;;;8.72;30.41;100527.30;1743444;82;21010;-56
2022/03/20 10:07:40;;;;;;;32.78;19.07;;;;;;;8.69;30.83;100532.27;1716891;82;21457;-57
2022/03/20 10:10:29;;;;;;;31.37;19.92;;;;;;;8.60;30.40;100530.80;1733007;80;21054;-57
2022/03/20 10:12:59;;;;;;;34.63;18.92;;;;;;;8.66;30.28;100525.41;1742104;82;21002;-56
2022/03/20 10:15:38;;;;;;;32.23;18.57;;;;;;;8.72;30.32;100523.24;1743397;82;21030;-57
2022/03/20 10:18:24;;;;;;;30.60;17.35;;;;;;;8.75;30.54;100521.98;1743237;81;20991;-57
2022/03/20 10:20:54;;;;;;;24.75;15.95;;;;;;;8.77;30.53;100525.30;1742137;82;21014;-56
2022/03/20 10:23:36;;;;;;;25.95;16.40;;;;;;;8.79;30.45;100523.22;1766401;80;21426;-57
2022/03/20 10:26:11;;;;;;;24.82;15.20;;;;;;;8.75;29.99;100517.93;1765830;80;21495;-56
2022/03/20 10:28:49;;;;;;;24.60;14.28;;;;;;;8.81;30.42;100510.88;1743018;81;21009;-57
2022/03/20 10:31:20;;;;;;;24.10;13.65;;;;;;;8.62;28.37;100508.45;1743373;82;21489;-57
2022/03/20 10:34:03;;;;;;;21.48;14.00;;;;;;;8.55;28.18;100511.17;1742978;82;21474;-57
2022/03/20 10:36:31;;;;;;;20.12;13.40;;;;;;;8.59;28.68;100507.00;1743055;82;22293;-57
2022/03/20 10:38:58;;;;;;;18.25;11.85;;;;;;;8.55;27.81;100499.00;1722068;82;21453;-57
2022/03/20 10:41:27;;;;;;;20.60;12.33;;;;;;;8.52;26.83;100500.75;1747365;81;20982;-57
2022/03/20 10:43:56;;;;;;;22.70;12.30;;;;;;;8.64;28.21;100498.28;1773215;80;20985;-56
2022/03/20 10:46:30;;;;;;;15.98;10.10;;;;;;;8.74;28.51;100490.06;1767496;80;21009;-57
2022/03/20 10:49:00;;;;;;;20.57;11.70;;;;;;;8.81;28.49;100487.38;1742995;82;21439;-56
2022/03/20 10:51:41;;;;;;;18.92;11.05;;;;;;;8.90;28.51;100487.47;1758452;80;21013;-56
2022/03/20 10:54:20;;;;;;;19.37;11.08;;;;;;;8.94;27.48;100488.70;1743202;81;21009;-56
2022/03/20 10:56:56;;;;;;;20.17;11.55;;;;;;;9.02;28.28;100482.25;1760196;80;21430;-56
2022/03/20 10:59:26;;;;;;;21.95;12.88;;;;;;;9.11;28.30;100485.05;1774246;80;20973;-57
2022/03/20 11:01:53;;;;;;;19.67;11.83;;;;;;;9.22;27.98;100488.45;1748146;80;21006;-57
2022/03/20 11:04:21;;;;;;;20.55;11.40;;;;;;;9.22;27.88;100490.33;1743228;82;21045;-56
2022/03/20 11:06:49;;;;;;;19.45;12.47;;;;;;;9.06;26.82;100479.45;1743158;81;21014;-57
2022/03/20 11:09:16;;;;;;;24.40;12.85;;;;;;;8.98;26.33;100481.84;1743403;82;21001;-57
2022/03/20 11:11:58;;;;;;;23.40;12.45;;;;;;;9.16;27.76;100474.44;1743104;82;21007;-57
2022/03/20 11:14:27;;;;;;;24.65;13.50;;;;;;;9.25;27.21;100466.41;1743377;82;22213;-57
2022/03/20 11:17:03;;;;;;;25.25;14.25;;;;;;;9.41;28.08;100470.53;1743224;81;20998;-57
2022/03/20 11:19:31;;;;;;;23.42;14.15;;;;;;;9.49;28.27;100470.83;1743433;82;21023;-56
2022/03/20 11:22:09;;;;;;;23.15;13.53;;;;;;;9.50;28.63;100471.13;1743231;80;21434;-56
2022/03/20 11:24:37;;;;;;;29.55;15.70;;;;;;;9.44;27.85;100457.91;1723269;82;21005;-57
2022/03/20 11:27:05;;;;;;;22.45;12.88;;;;;;;9.46;27.82;100463.94;1743096;81;21406;-56
2022/03/20 11:29:46;;;;;;;23.60;13.32;;;;;;;9.29;27.11;100462.22;1743143;82;21062;-57
2022/03/20 11:32:13;;;;;;;22.48;14.45;;;;;;;9.23;27.67;100452.78;1742939;81;21168;-57
2022/03/20 11:34:40;;;;;;;24.37;13.90;;;;;;;9.19;26.76;100442.06;1743314;82;21115;-56
2022/03/20 11:37:11;;;;;;;21.65;12.55;;;;;;;9.30;27.16;100448.16;1743123;81;21503;-57
2022/03/20 11:39:39;;;;;;;22.40;14.23;;;;;;;9.37;27.29;100450.86;1743318;82;21106;-57
2022/03/20 11:42:26;;;;;;;17.77;12.20;;;;;;;9.47;26.47;100440.41;1750598;80;21014;-57
2022/03/20 11:45:00;;;;;;;20.45;12.82;;;;;;;9.61;26.73;100428.50;1773892;80;21029;-56